sensor_id;sensor_type;location;lat;lon;timestamp;P1;durP1;ratioP1;P2;durP2;ratioP2
68438;SDS011;55421;51.600;5.718;2023-03-14T00:01:28;4.30;;;1.70;;
68438;SDS011;55421;51.600;5.718;2023-03-14T00:03:55;4.70;;;1.70;;
68438;SDS011;55421;51.600;5.718;2023-03-14T00:06:22;4.10;;;1.60;;
68438;SDS011;55421;51.600;5.718;2023-03-14T00:08:49;6.80;;;2.20;;
68438;SDS011;55421;51.600;5.718;2023-03-14T00:11:19;9.80;;;1.80;;
68438;SDS011;55421;51.600;5.718;2023-03-14T00:13:48;4.10;;;1.70;;
68438;SDS011;55421;51.600;5.718;2023-03-14T00:16:15;3.30;;;1.60;;
68438;SDS011;55421;51.600;5.718;2023-03-14T00:18:42;3.90;;;1.60;;
68438;SDS011;55421;51.600;5.718;2023-03-14T00:21:10;3.90;;;1.40;;
68438;SDS011;55421;51.600;5.718;2023-03-14T00:23:39;7.40;;;1.90;;
68438;SDS011;55421;51.600;5.718;2023-03-14T00:26:12;5.60;;;1.60;;
68438;SDS011;55421;51.600;5.718;2023-03-14T00:28:41;4.20;;;1.50;;
68438;SDS011;55421;51.600;5.718;2023-03-14T00:31:12;5.80;;;1.90;;
68438;SDS011;55421;51.600;5.718;2023-03-14T00:33:41;3.70;;;1.20;;
68438;SDS011;55421;51.600;5.718;2023-03-14T00:36:11;3.60;;;1.20;;
68438;SDS011;55421;51.600;5.718;2023-03-14T00:38:41;2.50;;;1.30;;
68438;SDS011;55421;51.600;5.718;2023-03-14T00:41:10;4.00;;;1.40;;
68438;SDS011;55421;51.600;5.718;2023-03-14T00:43:39;4.10;;;1.20;;
68438;SDS011;55421;51.600;5.718;2023-03-14T00:46:06;2.30;;;1.10;;
68438;SDS011;55421;51.600;5.718;2023-03-14T00:48:33;2.80;;;0.80;;
68438;SDS011;55421;51.600;5.718;2023-03-14T00:51:00;1.80;;;0.70;;
68438;SDS011;55421;51.600;5.718;2023-03-14T00:53:28;3.50;;;0.90;;
68438;SDS011;55421;51.600;5.718;2023-03-14T00:55:54;2.80;;;0.90;;
68438;SDS011;55421;51.600;5.718;2023-03-14T00:58:21;4.30;;;0.80;;
68438;SDS011;55421;51.600;5.718;2023-03-14T01:00:47;3.30;;;1.00;;
68438;SDS011;55421;51.600;5.718;2023-03-14T01:03:14;3.20;;;0.80;;
68438;SDS011;55421;51.600;5.718;2023-03-14T01:05:41;6.60;;;0.90;;
68438;SDS011;55421;51.600;5.718;2023-03-14T01:08:08;4.60;;;1.00;;
68438;SDS011;55421;51.600;5.718;2023-03-14T01:10:38;3.50;;;1.20;;
68438;SDS011;55421;51.600;5.718;2023-03-14T01:13:07;2.40;;;0.70;;
68438;SDS011;55421;51.600;5.718;2023-03-14T01:15:36;2.60;;;1.00;;
68438;SDS011;55421;51.600;5.718;2023-03-14T01:18:04;2.90;;;0.70;;
68438;SDS011;55421;51.600;5.718;2023-03-14T01:20:31;4.20;;;0.90;;
68438;SDS011;55421;51.600;5.718;2023-03-14T01:22:58;5.30;;;1.20;;
68438;SDS011;55421;51.600;5.718;2023-03-14T01:25:24;4.00;;;1.00;;
68438;SDS011;55421;51.600;5.718;2023-03-14T01:27:51;2.70;;;0.90;;
68438;SDS011;55421;51.600;5.718;2023-03-14T01:30:17;4.80;;;1.00;;
68438;SDS011;55421;51.600;5.718;2023-03-14T01:32:44;2.30;;;0.80;;
68438;SDS011;55421;51.600;5.718;2023-03-14T01:35:10;5.50;;;1.00;;
68438;SDS011;55421;51.600;5.718;2023-03-14T01:37:37;3.40;;;1.20;;
68438;SDS011;55421;51.600;5.718;2023-03-14T01:40:03;4.00;;;0.90;;
68438;SDS011;55421;51.600;5.718;2023-03-14T01:42:31;4.60;;;0.50;;
68438;SDS011;55421;51.600;5.718;2023-03-14T01:45:00;2.00;;;0.60;;
68438;SDS011;55421;51.600;5.718;2023-03-14T01:47:27;3.30;;;0.90;;
68438;SDS011;55421;51.600;5.718;2023-03-14T01:50:08;2.40;;;0.90;;
68438;SDS011;55421;51.600;5.718;2023-03-14T01:52:44;7.50;;;1.20;;
68438;SDS011;55421;51.600;5.718;2023-03-14T01:55:15;4.30;;;1.20;;
68438;SDS011;55421;51.600;5.718;2023-03-14T01:57:54;3.70;;;0.90;;
68438;SDS011;55421;51.600;5.718;2023-03-14T02:00:26;2.60;;;0.80;;
68438;SDS011;55421;51.600;5.718;2023-03-14T02:02:58;1.80;;;0.90;;
68438;SDS011;55421;51.600;5.718;2023-03-14T02:05:32;3.20;;;1.10;;
68438;SDS011;55421;51.600;5.718;2023-03-14T02:08:04;5.10;;;1.00;;
68438;SDS011;55421;51.600;5.718;2023-03-14T02:10:41;2.30;;;0.90;;
68438;SDS011;55421;51.600;5.718;2023-03-14T02:13:11;2.40;;;1.10;;
68438;SDS011;55421;51.600;5.718;2023-03-14T02:15:40;2.70;;;0.70;;
68438;SDS011;55421;51.600;5.718;2023-03-14T02:18:07;3.00;;;0.80;;
68438;SDS011;55421;51.600;5.718;2023-03-14T02:20:53;5.50;;;1.10;;
68438;SDS011;55421;51.600;5.718;2023-03-14T02:29:07;6.10;;;1.10;;
68438;SDS011;55421;51.600;5.718;2023-03-14T02:31:34;4.40;;;1.00;;
68438;SDS011;55421;51.600;5.718;2023-03-14T02:34:02;6.00;;;1.10;;
68438;SDS011;55421;51.600;5.718;2023-03-14T02:36:29;3.40;;;0.90;;
68438;SDS011;55421;51.600;5.718;2023-03-14T02:39:14;4.60;;;1.30;;
68438;SDS011;55421;51.600;5.718;2023-03-14T02:41:48;4.00;;;1.10;;
68438;SDS011;55421;51.600;5.718;2023-03-14T02:44:15;7.40;;;1.00;;
68438;SDS011;55421;51.600;5.718;2023-03-14T02:46:42;8.10;;;1.70;;
68438;SDS011;55421;51.600;5.718;2023-03-14T02:49:12;9.70;;;1.00;;
68438;SDS011;55421;51.600;5.718;2023-03-14T02:51:41;5.70;;;1.10;;
68438;SDS011;55421;51.600;5.718;2023-03-14T02:54:11;5.40;;;1.20;;
68438;SDS011;55421;51.600;5.718;2023-03-14T02:56:38;7.10;;;1.50;;
68438;SDS011;55421;51.600;5.718;2023-03-14T02:59:05;4.20;;;1.10;;
68438;SDS011;55421;51.600;5.718;2023-03-14T03:01:35;4.60;;;1.20;;
68438;SDS011;55421;51.600;5.718;2023-03-14T03:04:02;3.30;;;1.10;;
68438;SDS011;55421;51.600;5.718;2023-03-14T03:06:29;5.10;;;1.40;;
68438;SDS011;55421;51.600;5.718;2023-03-14T03:08:55;3.20;;;1.10;;
68438;SDS011;55421;51.600;5.718;2023-03-14T03:11:22;6.30;;;1.50;;
68438;SDS011;55421;51.600;5.718;2023-03-14T03:13:48;4.30;;;1.10;;
68438;SDS011;55421;51.600;5.718;2023-03-14T03:16:15;6.70;;;1.30;;
68438;SDS011;55421;51.600;5.718;2023-03-14T03:18:41;6.50;;;1.20;;
68438;SDS011;55421;51.600;5.718;2023-03-14T03:21:08;6.90;;;1.20;;
68438;SDS011;55421;51.600;5.718;2023-03-14T03:23:35;4.40;;;1.40;;
68438;SDS011;55421;51.600;5.718;2023-03-14T03:26:05;6.10;;;1.30;;
68438;SDS011;55421;51.600;5.718;2023-03-14T03:28:31;5.00;;;1.50;;
68438;SDS011;55421;51.600;5.718;2023-03-14T03:30:58;6.20;;;1.20;;
68438;SDS011;55421;51.600;5.718;2023-03-14T03:33:24;3.90;;;1.00;;
68438;SDS011;55421;51.600;5.718;2023-03-14T03:35:51;4.50;;;1.30;;
68438;SDS011;55421;51.600;5.718;2023-03-14T03:38:18;4.10;;;1.30;;
68438;SDS011;55421;51.600;5.718;2023-03-14T03:40:46;3.70;;;0.90;;
68438;SDS011;55421;51.600;5.718;2023-03-14T03:43:12;4.80;;;1.10;;
68438;SDS011;55421;51.600;5.718;2023-03-14T03:45:39;5.10;;;1.10;;
68438;SDS011;55421;51.600;5.718;2023-03-14T03:48:06;7.00;;;2.00;;
68438;SDS011;55421;51.600;5.718;2023-03-14T03:50:32;5.10;;;1.30;;
68438;SDS011;55421;51.600;5.718;2023-03-14T03:52:59;4.70;;;1.20;;
68438;SDS011;55421;51.600;5.718;2023-03-14T03:55:26;3.00;;;1.20;;
68438;SDS011;55421;51.600;5.718;2023-03-14T03:57:54;8.70;;;1.80;;
68438;SDS011;55421;51.600;5.718;2023-03-14T04:00:21;7.40;;;1.40;;
68438;SDS011;55421;51.600;5.718;2023-03-14T04:02:47;7.50;;;1.50;;
68438;SDS011;55421;51.600;5.718;2023-03-14T04:05:15;3.80;;;1.10;;
68438;SDS011;55421;51.600;5.718;2023-03-14T04:07:41;3.90;;;1.40;;
68438;SDS011;55421;51.600;5.718;2023-03-14T04:10:08;7.20;;;1.40;;
68438;SDS011;55421;51.600;5.718;2023-03-14T04:12:35;6.60;;;1.90;;
68438;SDS011;55421;51.600;5.718;2023-03-14T04:15:02;4.90;;;1.30;;
68438;SDS011;55421;51.600;5.718;2023-03-14T04:17:28;10.70;;;1.50;;
68438;SDS011;55421;51.600;5.718;2023-03-14T04:19:55;4.40;;;1.00;;
68438;SDS011;55421;51.600;5.718;2023-03-14T04:22:21;4.60;;;1.00;;
68438;SDS011;55421;51.600;5.718;2023-03-14T04:24:48;3.20;;;0.90;;
68438;SDS011;55421;51.600;5.718;2023-03-14T04:27:16;4.00;;;0.90;;
68438;SDS011;55421;51.600;5.718;2023-03-14T04:29:42;5.30;;;1.20;;
68438;SDS011;55421;51.600;5.718;2023-03-14T04:32:09;3.70;;;0.90;;
68438;SDS011;55421;51.600;5.718;2023-03-14T04:34:36;3.30;;;0.90;;
68438;SDS011;55421;51.600;5.718;2023-03-14T04:37:03;7.80;;;1.10;;
68438;SDS011;55421;51.600;5.718;2023-03-14T04:39:30;4.60;;;0.80;;
68438;SDS011;55421;51.600;5.718;2023-03-14T04:41:56;4.80;;;0.90;;
68438;SDS011;55421;51.600;5.718;2023-03-14T04:44:23;2.90;;;0.80;;
68438;SDS011;55421;51.600;5.718;2023-03-14T04:46:49;5.70;;;1.20;;
68438;SDS011;55421;51.600;5.718;2023-03-14T04:49:15;3.50;;;0.70;;
68438;SDS011;55421;51.600;5.718;2023-03-14T04:51:42;5.10;;;1.50;;
68438;SDS011;55421;51.600;5.718;2023-03-14T04:54:08;3.20;;;1.00;;
68438;SDS011;55421;51.600;5.718;2023-03-14T04:56:35;4.70;;;1.10;;
68438;SDS011;55421;51.600;5.718;2023-03-14T04:59:03;2.60;;;0.90;;
68438;SDS011;55421;51.600;5.718;2023-03-14T05:01:30;2.20;;;0.90;;
68438;SDS011;55421;51.600;5.718;2023-03-14T05:03:57;3.10;;;0.80;;
68438;SDS011;55421;51.600;5.718;2023-03-14T05:06:23;3.40;;;1.20;;
68438;SDS011;55421;51.600;5.718;2023-03-14T05:08:50;2.80;;;1.00;;
68438;SDS011;55421;51.600;5.718;2023-03-14T05:11:16;3.70;;;1.20;;
68438;SDS011;55421;51.600;5.718;2023-03-14T05:13:43;2.20;;;1.20;;
68438;SDS011;55421;51.600;5.718;2023-03-14T05:16:11;3.10;;;1.30;;
68438;SDS011;55421;51.600;5.718;2023-03-14T05:18:37;3.60;;;1.60;;
68438;SDS011;55421;51.600;5.718;2023-03-14T05:21:04;2.70;;;1.40;;
68438;SDS011;55421;51.600;5.718;2023-03-14T05:23:31;5.70;;;1.50;;
68438;SDS011;55421;51.600;5.718;2023-03-14T05:25:57;3.80;;;1.40;;
68438;SDS011;55421;51.600;5.718;2023-03-14T05:28:24;3.10;;;1.10;;
68438;SDS011;55421;51.600;5.718;2023-03-14T05:30:50;1.90;;;1.20;;
68438;SDS011;55421;51.600;5.718;2023-03-14T05:33:17;2.10;;;1.10;;
68438;SDS011;55421;51.600;5.718;2023-03-14T05:35:43;3.00;;;2.20;;
68438;SDS011;55421;51.600;5.718;2023-03-14T05:38:10;4.60;;;2.10;;
68438;SDS011;55421;51.600;5.718;2023-03-14T05:40:36;2.40;;;1.90;;
68438;SDS011;55421;51.600;5.718;2023-03-14T05:43:03;2.20;;;2.00;;
68438;SDS011;55421;51.600;5.718;2023-03-14T05:45:29;3.50;;;1.90;;
68438;SDS011;55421;51.600;5.718;2023-03-14T05:47:56;5.30;;;2.40;;
68438;SDS011;55421;51.600;5.718;2023-03-14T05:50:22;3.60;;;1.90;;
68438;SDS011;55421;51.600;5.718;2023-03-14T05:52:49;3.90;;;1.90;;
68438;SDS011;55421;51.600;5.718;2023-03-14T05:55:15;4.60;;;2.00;;
68438;SDS011;55421;51.600;5.718;2023-03-14T05:57:42;5.20;;;2.80;;
68438;SDS011;55421;51.600;5.718;2023-03-14T06:00:09;5.00;;;2.50;;
68438;SDS011;55421;51.600;5.718;2023-03-14T06:02:36;3.40;;;2.40;;
68438;SDS011;55421;51.600;5.718;2023-03-14T06:05:03;4.40;;;2.20;;
68438;SDS011;55421;51.600;5.718;2023-03-14T06:07:30;3.50;;;2.10;;
68438;SDS011;55421;51.600;5.718;2023-03-14T06:09:56;3.20;;;1.80;;
68438;SDS011;55421;51.600;5.718;2023-03-14T06:12:24;4.00;;;1.80;;
68438;SDS011;55421;51.600;5.718;2023-03-14T06:14:51;7.60;;;1.80;;
68438;SDS011;55421;51.600;5.718;2023-03-14T06:17:17;3.50;;;2.10;;
68438;SDS011;55421;51.600;5.718;2023-03-14T06:19:44;3.20;;;2.00;;
68438;SDS011;55421;51.600;5.718;2023-03-14T06:22:10;3.50;;;2.00;;
68438;SDS011;55421;51.600;5.718;2023-03-14T06:24:37;3.10;;;2.20;;
68438;SDS011;55421;51.600;5.718;2023-03-14T06:27:03;3.70;;;2.10;;
68438;SDS011;55421;51.600;5.718;2023-03-14T06:29:29;2.10;;;1.80;;
68438;SDS011;55421;51.600;5.718;2023-03-14T06:31:56;3.90;;;2.20;;
68438;SDS011;55421;51.600;5.718;2023-03-14T06:34:23;3.10;;;1.90;;
68438;SDS011;55421;51.600;5.718;2023-03-14T06:36:49;4.70;;;1.90;;
68438;SDS011;55421;51.600;5.718;2023-03-14T06:39:16;2.90;;;1.60;;
68438;SDS011;55421;51.600;5.718;2023-03-14T06:41:45;2.30;;;1.60;;
68438;SDS011;55421;51.600;5.718;2023-03-14T06:44:13;2.70;;;2.30;;
68438;SDS011;55421;51.600;5.718;2023-03-14T06:46:39;3.20;;;1.70;;
68438;SDS011;55421;51.600;5.718;2023-03-14T06:49:06;3.30;;;2.00;;
68438;SDS011;55421;51.600;5.718;2023-03-14T06:51:33;4.70;;;2.00;;
68438;SDS011;55421;51.600;5.718;2023-03-14T06:54:00;2.40;;;1.50;;
68438;SDS011;55421;51.600;5.718;2023-03-14T06:56:26;3.20;;;1.70;;
68438;SDS011;55421;51.600;5.718;2023-03-14T06:58:53;2.00;;;1.40;;
68438;SDS011;55421;51.600;5.718;2023-03-14T07:01:27;4.00;;;1.80;;
68438;SDS011;55421;51.600;5.718;2023-03-14T07:03:54;1.90;;;1.60;;
68438;SDS011;55421;51.600;5.718;2023-03-14T07:06:21;5.90;;;2.40;;
68438;SDS011;55421;51.600;5.718;2023-03-14T07:08:48;2.70;;;1.60;;
68438;SDS011;55421;51.600;5.718;2023-03-14T07:11:15;2.30;;;1.30;;
68438;SDS011;55421;51.600;5.718;2023-03-14T07:13:42;4.60;;;1.60;;
68438;SDS011;55421;51.600;5.718;2023-03-14T07:16:08;3.40;;;1.60;;
68438;SDS011;55421;51.600;5.718;2023-03-14T07:18:35;3.00;;;1.80;;
68438;SDS011;55421;51.600;5.718;2023-03-14T07:21:05;2.10;;;1.60;;
68438;SDS011;55421;51.600;5.718;2023-03-14T07:23:38;3.40;;;1.60;;
68438;SDS011;55421;51.600;5.718;2023-03-14T07:26:05;2.00;;;1.20;;
68438;SDS011;55421;51.600;5.718;2023-03-14T07:28:31;1.80;;;1.30;;
68438;SDS011;55421;51.600;5.718;2023-03-14T07:30:58;2.10;;;1.60;;
68438;SDS011;55421;51.600;5.718;2023-03-14T07:33:25;2.50;;;1.60;;
68438;SDS011;55421;51.600;5.718;2023-03-14T07:35:51;3.10;;;1.40;;
68438;SDS011;55421;51.600;5.718;2023-03-14T07:38:18;3.10;;;1.40;;
68438;SDS011;55421;51.600;5.718;2023-03-14T07:40:44;1.80;;;1.60;;
68438;SDS011;55421;51.600;5.718;2023-03-14T07:43:11;5.60;;;1.60;;
68438;SDS011;55421;51.600;5.718;2023-03-14T07:45:37;1.30;;;0.90;;
68438;SDS011;55421;51.600;5.718;2023-03-14T07:48:04;1.10;;;0.80;;
68438;SDS011;55421;51.600;5.718;2023-03-14T07:50:30;0.60;;;0.50;;
68438;SDS011;55421;51.600;5.718;2023-03-14T07:52:57;0.70;;;0.40;;
68438;SDS011;55421;51.600;5.718;2023-03-14T07:55:23;0.80;;;0.30;;
68438;SDS011;55421;51.600;5.718;2023-03-14T07:57:50;2.60;;;1.00;;
68438;SDS011;55421;51.600;5.718;2023-03-14T08:00:16;0.50;;;0.40;;
68438;SDS011;55421;51.600;5.718;2023-03-14T08:02:43;0.70;;;0.40;;
68438;SDS011;55421;51.600;5.718;2023-03-14T08:05:10;1.80;;;0.60;;
68438;SDS011;55421;51.600;5.718;2023-03-14T08:07:36;0.60;;;0.50;;
68438;SDS011;55421;51.600;5.718;2023-03-14T08:10:04;2.90;;;0.60;;
68438;SDS011;55421;51.600;5.718;2023-03-14T08:12:31;1.80;;;0.60;;
68438;SDS011;55421;51.600;5.718;2023-03-14T08:14:59;0.60;;;0.50;;
68438;SDS011;55421;51.600;5.718;2023-03-14T08:17:26;1.20;;;0.90;;
68438;SDS011;55421;51.600;5.718;2023-03-14T08:19:53;0.80;;;0.70;;
68438;SDS011;55421;51.600;5.718;2023-03-14T08:22:19;1.00;;;0.80;;
68438;SDS011;55421;51.600;5.718;2023-03-14T08:24:45;1.30;;;0.70;;
68438;SDS011;55421;51.600;5.718;2023-03-14T08:27:12;0.70;;;0.70;;
68438;SDS011;55421;51.600;5.718;2023-03-14T08:29:40;2.00;;;1.20;;
68438;SDS011;55421;51.600;5.718;2023-03-14T08:32:08;1.50;;;1.00;;
68438;SDS011;55421;51.600;5.718;2023-03-14T08:34:34;1.50;;;1.00;;
68438;SDS011;55421;51.600;5.718;2023-03-14T08:37:01;1.40;;;0.90;;
68438;SDS011;55421;51.600;5.718;2023-03-14T08:39:27;1.70;;;1.00;;
68438;SDS011;55421;51.600;5.718;2023-03-14T08:41:54;1.50;;;1.00;;
68438;SDS011;55421;51.600;5.718;2023-03-14T08:44:20;1.70;;;1.00;;
68438;SDS011;55421;51.600;5.718;2023-03-14T08:46:47;1.50;;;0.90;;
68438;SDS011;55421;51.600;5.718;2023-03-14T08:49:13;1.20;;;1.10;;
68438;SDS011;55421;51.600;5.718;2023-03-14T08:51:40;1.30;;;1.10;;
68438;SDS011;55421;51.600;5.718;2023-03-14T08:54:10;1.40;;;1.10;;
68438;SDS011;55421;51.600;5.718;2023-03-14T08:56:37;2.40;;;1.20;;
68438;SDS011;55421;51.600;5.718;2023-03-14T08:59:04;3.30;;;1.30;;
68438;SDS011;55421;51.600;5.718;2023-03-14T09:01:31;4.30;;;1.20;;
68438;SDS011;55421;51.600;5.718;2023-03-14T09:03:58;1.10;;;0.70;;
68438;SDS011;55421;51.600;5.718;2023-03-14T09:06:25;6.80;;;1.30;;
68438;SDS011;55421;51.600;5.718;2023-03-14T09:08:51;1.00;;;0.80;;
68438;SDS011;55421;51.600;5.718;2023-03-14T09:11:18;2.80;;;0.90;;
68438;SDS011;55421;51.600;5.718;2023-03-14T09:13:44;1.00;;;0.80;;
68438;SDS011;55421;51.600;5.718;2023-03-14T09:16:14;2.00;;;0.80;;
68438;SDS011;55421;51.600;5.718;2023-03-14T09:18:41;1.20;;;0.60;;
68438;SDS011;55421;51.600;5.718;2023-03-14T09:21:08;3.70;;;1.00;;
68438;SDS011;55421;51.600;5.718;2023-03-14T09:23:34;2.00;;;1.00;;
68438;SDS011;55421;51.600;5.718;2023-03-14T09:26:01;1.20;;;1.10;;
68438;SDS011;55421;51.600;5.718;2023-03-14T09:28:27;4.60;;;1.30;;
68438;SDS011;55421;51.600;5.718;2023-03-14T09:30:54;1.50;;;1.20;;
68438;SDS011;55421;51.600;5.718;2023-03-14T09:33:20;0.90;;;0.70;;
68438;SDS011;55421;51.600;5.718;2023-03-14T09:35:47;1.90;;;0.80;;
68438;SDS011;55421;51.600;5.718;2023-03-14T09:38:14;0.90;;;0.30;;
68438;SDS011;55421;51.600;5.718;2023-03-14T09:40:40;0.40;;;0.30;;
68438;SDS011;55421;51.600;5.718;2023-03-14T09:43:14;1.70;;;0.40;;
68438;SDS011;55421;51.600;5.718;2023-03-14T09:45:44;1.50;;;0.40;;
68438;SDS011;55421;51.600;5.718;2023-03-14T09:48:21;0.70;;;0.10;;
68438;SDS011;55421;51.600;5.718;2023-03-14T09:50:54;0.50;;;0.20;;
68438;SDS011;55421;51.600;5.718;2023-03-14T09:53:40;0.70;;;0.30;;
68438;SDS011;55421;51.600;5.718;2023-03-14T09:56:18;0.40;;;0.30;;
68438;SDS011;55421;51.600;5.718;2023-03-14T09:58:58;1.60;;;0.50;;
68438;SDS011;55421;51.600;5.718;2023-03-14T10:01:31;1.30;;;0.40;;
68438;SDS011;55421;51.600;5.718;2023-03-14T10:04:15;1.30;;;0.60;;
68438;SDS011;55421;51.600;5.718;2023-03-14T10:06:43;1.60;;;0.50;;
68438;SDS011;55421;51.600;5.718;2023-03-14T10:09:19;2.50;;;0.60;;
68438;SDS011;55421;51.600;5.718;2023-03-14T10:11:54;3.10;;;0.60;;
68438;SDS011;55421;51.600;5.718;2023-03-14T10:14:31;1.10;;;0.60;;
68438;SDS011;55421;51.600;5.718;2023-03-14T10:17:11;2.50;;;0.70;;
68438;SDS011;55421;51.600;5.718;2023-03-14T10:19:53;0.60;;;0.50;;
68438;SDS011;55421;51.600;5.718;2023-03-14T10:22:30;1.60;;;0.40;;
68438;SDS011;55421;51.600;5.718;2023-03-14T10:25:05;1.70;;;0.70;;
68438;SDS011;55421;51.600;5.718;2023-03-14T10:27:49;3.50;;;0.70;;
68438;SDS011;55421;51.600;5.718;2023-03-14T10:30:39;2.60;;;0.70;;
68438;SDS011;55421;51.600;5.718;2023-03-14T10:35:58;3.70;;;0.80;;
68438;SDS011;55421;51.600;5.718;2023-03-14T10:38:31;3.20;;;1.00;;
68438;SDS011;55421;51.600;5.718;2023-03-14T10:41:01;3.40;;;0.50;;
68438;SDS011;55421;51.600;5.718;2023-03-14T10:43:34;5.90;;;1.20;;
68438;SDS011;55421;51.600;5.718;2023-03-14T10:46:18;7.20;;;1.00;;
68438;SDS011;55421;51.600;5.718;2023-03-14T10:48:46;6.60;;;1.30;;
68438;SDS011;55421;51.600;5.718;2023-03-14T10:53:49;8.10;;;1.50;;
68438;SDS011;55421;51.600;5.718;2023-03-14T10:56:24;4.80;;;1.30;;
68438;SDS011;55421;51.600;5.718;2023-03-14T10:58:55;6.30;;;0.90;;
68438;SDS011;55421;51.600;5.718;2023-03-14T11:01:44;7.00;;;1.40;;
68438;SDS011;55421;51.600;5.718;2023-03-14T11:07:10;6.80;;;1.50;;
68438;SDS011;55421;51.600;5.718;2023-03-14T11:19:45;8.40;;;1.20;;
68438;SDS011;55421;51.600;5.718;2023-03-14T11:22:47;8.40;;;1.70;;
68438;SDS011;55421;51.600;5.718;2023-03-14T11:28:18;10.40;;;1.90;;
68438;SDS011;55421;51.600;5.718;2023-03-14T11:31:17;12.40;;;1.70;;
68438;SDS011;55421;51.600;5.718;2023-03-14T11:37:17;6.40;;;1.20;;
68438;SDS011;55421;51.600;5.718;2023-03-14T11:39:59;6.30;;;2.50;;
68438;SDS011;55421;51.600;5.718;2023-03-14T11:42:34;7.40;;;1.10;;
68438;SDS011;55421;51.600;5.718;2023-03-14T11:45:02;9.90;;;1.60;;
68438;SDS011;55421;51.600;5.718;2023-03-14T11:47:37;11.70;;;1.70;;
68438;SDS011;55421;51.600;5.718;2023-03-14T11:50:17;13.90;;;1.60;;
68438;SDS011;55421;51.600;5.718;2023-03-14T11:53:11;10.10;;;2.30;;
68438;SDS011;55421;51.600;5.718;2023-03-14T11:55:44;13.10;;;1.80;;
68438;SDS011;55421;51.600;5.718;2023-03-14T11:58:17;9.20;;;1.60;;
68438;SDS011;55421;51.600;5.718;2023-03-14T12:00:47;14.30;;;1.60;;
68438;SDS011;55421;51.600;5.718;2023-03-14T12:06:28;5.70;;;1.30;;
68438;SDS011;55421;51.600;5.718;2023-03-14T12:09:18;10.90;;;1.80;;
68438;SDS011;55421;51.600;5.718;2023-03-14T12:11:58;5.50;;;1.70;;
68438;SDS011;55421;51.600;5.718;2023-03-14T12:14:30;8.00;;;2.00;;
68438;SDS011;55421;51.600;5.718;2023-03-14T12:17:17;9.40;;;1.60;;
68438;SDS011;55421;51.600;5.718;2023-03-14T12:19:47;9.50;;;1.60;;
68438;SDS011;55421;51.600;5.718;2023-03-14T12:22:56;17.10;;;2.00;;
68438;SDS011;55421;51.600;5.718;2023-03-14T12:25:32;17.60;;;2.40;;
68438;SDS011;55421;51.600;5.718;2023-03-14T12:28:20;19.40;;;2.80;;
68438;SDS011;55421;51.600;5.718;2023-03-14T12:30:56;10.30;;;1.70;;
68438;SDS011;55421;51.600;5.718;2023-03-14T12:33:30;12.50;;;2.30;;
68438;SDS011;55421;51.600;5.718;2023-03-14T12:35:59;10.40;;;2.00;;
68438;SDS011;55421;51.600;5.718;2023-03-14T12:38:40;11.80;;;2.40;;
68438;SDS011;55421;51.600;5.718;2023-03-14T12:41:23;14.70;;;2.40;;
68438;SDS011;55421;51.600;5.718;2023-03-14T12:46:59;13.80;;;2.20;;
68438;SDS011;55421;51.600;5.718;2023-03-14T12:49:40;8.90;;;1.60;;
68438;SDS011;55421;51.600;5.718;2023-03-14T12:52:14;10.90;;;1.70;;
68438;SDS011;55421;51.600;5.718;2023-03-14T12:55:27;13.50;;;1.80;;
68438;SDS011;55421;51.600;5.718;2023-03-14T13:00:45;9.70;;;2.20;;
68438;SDS011;55421;51.600;5.718;2023-03-14T13:03:26;11.20;;;1.50;;
68438;SDS011;55421;51.600;5.718;2023-03-14T13:06:04;11.00;;;1.80;;
68438;SDS011;55421;51.600;5.718;2023-03-14T13:08:43;7.20;;;1.50;;
68438;SDS011;55421;51.600;5.718;2023-03-14T13:11:21;10.00;;;1.40;;
68438;SDS011;55421;51.600;5.718;2023-03-14T13:13:52;5.60;;;1.40;;
68438;SDS011;55421;51.600;5.718;2023-03-14T13:16:23;5.10;;;1.40;;
68438;SDS011;55421;51.600;5.718;2023-03-14T13:18:59;6.60;;;1.40;;
68438;SDS011;55421;51.600;5.718;2023-03-14T13:21:34;9.20;;;1.60;;
68438;SDS011;55421;51.600;5.718;2023-03-14T13:24:17;9.20;;;1.40;;
68438;SDS011;55421;51.600;5.718;2023-03-14T13:26:55;6.50;;;1.20;;
68438;SDS011;55421;51.600;5.718;2023-03-14T13:29:29;13.60;;;2.00;;
68438;SDS011;55421;51.600;5.718;2023-03-14T13:32:01;11.70;;;1.90;;
68438;SDS011;55421;51.600;5.718;2023-03-14T13:34:38;3.30;;;1.20;;
68438;SDS011;55421;51.600;5.718;2023-03-14T13:37:16;7.30;;;1.50;;
68438;SDS011;55421;51.600;5.718;2023-03-14T13:39:56;8.70;;;1.60;;
68438;SDS011;55421;51.600;5.718;2023-03-14T13:42:28;6.30;;;1.50;;
68438;SDS011;55421;51.600;5.718;2023-03-14T13:44:56;7.10;;;1.20;;
68438;SDS011;55421;51.600;5.718;2023-03-14T13:47:24;8.30;;;1.60;;
68438;SDS011;55421;51.600;5.718;2023-03-14T13:49:52;4.80;;;1.00;;
68438;SDS011;55421;51.600;5.718;2023-03-14T13:52:35;6.70;;;1.50;;
68438;SDS011;55421;51.600;5.718;2023-03-14T13:55:05;8.10;;;1.10;;
68438;SDS011;55421;51.600;5.718;2023-03-14T13:57:44;3.40;;;1.10;;
68438;SDS011;55421;51.600;5.718;2023-03-14T14:00:22;5.90;;;1.60;;
68438;SDS011;55421;51.600;5.718;2023-03-14T14:02:55;9.10;;;1.20;;
68438;SDS011;55421;51.600;5.718;2023-03-14T14:05:26;4.10;;;1.00;;
68438;SDS011;55421;51.600;5.718;2023-03-14T14:07:54;6.40;;;1.20;;
68438;SDS011;55421;51.600;5.718;2023-03-14T14:10:21;3.70;;;0.80;;
68438;SDS011;55421;51.600;5.718;2023-03-14T14:13:01;9.40;;;2.30;;
68438;SDS011;55421;51.600;5.718;2023-03-14T14:15:32;4.80;;;0.70;;
68438;SDS011;55421;51.600;5.718;2023-03-14T14:18:06;2.80;;;0.90;;
68438;SDS011;55421;51.600;5.718;2023-03-14T14:20:41;4.00;;;1.10;;
68438;SDS011;55421;51.600;5.718;2023-03-14T14:23:12;2.70;;;0.80;;
68438;SDS011;55421;51.600;5.718;2023-03-14T14:25:45;5.10;;;1.20;;
68438;SDS011;55421;51.600;5.718;2023-03-14T14:28:30;4.80;;;1.90;;
68438;SDS011;55421;51.600;5.718;2023-03-14T14:33:43;3.40;;;0.90;;
68438;SDS011;55421;51.600;5.718;2023-03-14T14:36:17;4.40;;;0.90;;
68438;SDS011;55421;51.600;5.718;2023-03-14T14:38:50;4.60;;;1.40;;
68438;SDS011;55421;51.600;5.718;2023-03-14T14:41:29;4.30;;;1.10;;
68438;SDS011;55421;51.600;5.718;2023-03-14T14:43:59;7.80;;;1.40;;
68438;SDS011;55421;51.600;5.718;2023-03-14T14:46:28;3.80;;;1.20;;
68438;SDS011;55421;51.600;5.718;2023-03-14T14:49:03;5.00;;;1.10;;
68438;SDS011;55421;51.600;5.718;2023-03-14T14:51:38;4.30;;;1.00;;
68438;SDS011;55421;51.600;5.718;2023-03-14T14:54:13;6.80;;;1.20;;
68438;SDS011;55421;51.600;5.718;2023-03-14T14:56:49;9.40;;;1.30;;
68438;SDS011;55421;51.600;5.718;2023-03-14T14:59:21;6.90;;;1.20;;
68438;SDS011;55421;51.600;5.718;2023-03-14T15:01:55;4.60;;;1.00;;
68438;SDS011;55421;51.600;5.718;2023-03-14T15:04:24;6.50;;;1.30;;
68438;SDS011;55421;51.600;5.718;2023-03-14T15:06:52;5.40;;;1.10;;
68438;SDS011;55421;51.600;5.718;2023-03-14T15:09:19;7.60;;;1.20;;
68438;SDS011;55421;51.600;5.718;2023-03-14T15:11:47;4.90;;;1.00;;
68438;SDS011;55421;51.600;5.718;2023-03-14T15:14:14;3.50;;;1.00;;
68438;SDS011;55421;51.600;5.718;2023-03-14T15:16:41;6.10;;;1.00;;
68438;SDS011;55421;51.600;5.718;2023-03-14T15:19:16;7.10;;;1.00;;
68438;SDS011;55421;51.600;5.718;2023-03-14T15:21:46;4.20;;;0.80;;
68438;SDS011;55421;51.600;5.718;2023-03-14T15:24:13;5.20;;;1.00;;
68438;SDS011;55421;51.600;5.718;2023-03-14T15:26:39;2.00;;;0.60;;
68438;SDS011;55421;51.600;5.718;2023-03-14T15:29:08;3.20;;;1.00;;
68438;SDS011;55421;51.600;5.718;2023-03-14T15:31:39;5.10;;;1.10;;
68438;SDS011;55421;51.600;5.718;2023-03-14T15:34:06;5.30;;;1.10;;
68438;SDS011;55421;51.600;5.718;2023-03-14T15:36:33;4.80;;;1.00;;
68438;SDS011;55421;51.600;5.718;2023-03-14T15:39:03;9.10;;;1.10;;
68438;SDS011;55421;51.600;5.718;2023-03-14T15:41:32;10.60;;;1.20;;
68438;SDS011;55421;51.600;5.718;2023-03-14T15:43:59;5.00;;;1.00;;
68438;SDS011;55421;51.600;5.718;2023-03-14T15:46:25;3.50;;;1.10;;